Phoenix, Oregon
Current Conditions -  °F | °C
As of 4:32 AM on Monday 20 Oct 2014 (Local Time) from KMFR Reporting Station
Moderate Rain Moderate Rain  
Wind Chill: 55°   Ceiling: 1500
Heat Index: 55°   Visibility: 5mi
Dew Point: 53°   Wind: 0mph
Humidity: 93%   Direction: NA
Pressure: 29.78"   Gusts: NA
Location:  42.28°N, 122.82°W
Report Text: KMFR 201132Z AUTO 00000KT 5SM RA BR BKN015 OVC075 13/12 A2978 RMK AO2 P0010 T01280117
Loading
Personal Weather Stations






























Interactive Weather Map
Tropical Storm Tracking
New forecast layout! Learn more

10-Day Weather Forecast

Advertisements
Track Severe Weather on mobile